sensor_id;sensor_type;location;lat;lon;timestamp;P1;P2;P0
33264;PMS5003;31404;53.974;-1.086;2023-02-15T00:00:41;71;61;
33264;PMS5003;31404;53.974;-1.086;2023-02-15T00:05:35;54;50;
33264;PMS5003;31404;53.974;-1.086;2023-02-15T00:10:34;65;57;
33264;PMS5003;31404;53.974;-1.086;2023-02-15T00:15:34;57;51;
33264;PMS5003;31404;53.974;-1.086;2023-02-15T00:20:35;65;58;
33264;PMS5003;31404;53.974;-1.086;2023-02-15T00:25:34;59;54;
33264;PMS5003;31404;53.974;-1.086;2023-02-15T00:30:33;39;39;
33264;PMS5003;31404;53.974;-1.086;2023-02-15T00:35:34;66;59;
33264;PMS5003;31404;53.974;-1.086;2023-02-15T00:40:34;55;51;
33264;PMS5003;31404;53.974;-1.086;2023-02-15T00:45:34;55;49;
33264;PMS5003;31404;53.974;-1.086;2023-02-15T00:50:34;53;49;
33264;PMS5003;31404;53.974;-1.086;2023-02-15T00:55:34;60;53;
33264;PMS5003;31404;53.974;-1.086;2023-02-15T01:00:34;55;48;
33264;PMS5003;31404;53.974;-1.086;2023-02-15T01:05:35;55;53;
33264;PMS5003;31404;53.974;-1.086;2023-02-15T01:10:35;52;49;
33264;PMS5003;31404;53.974;-1.086;2023-02-15T01:15:35;52;50;
33264;PMS5003;31404;53.974;-1.086;2023-02-15T01:20:35;61;53;
33264;PMS5003;31404;53.974;-1.086;2023-02-15T01:25:35;56;49;
33264;PMS5003;31404;53.974;-1.086;2023-02-15T01:30:35;56;48;
33264;PMS5003;31404;53.974;-1.086;2023-02-15T01:35:34;57;55;
33264;PMS5003;31404;53.974;-1.086;2023-02-15T01:40:34;67;55;
33264;PMS5003;31404;53.974;-1.086;2023-02-15T01:45:35;73;62;
33264;PMS5003;31404;53.974;-1.086;2023-02-15T01:50:35;66;58;
33264;PMS5003;31404;53.974;-1.086;2023-02-15T01:55:36;57;56;
33264;PMS5003;31404;53.974;-1.086;2023-02-15T02:00:34;73;59;
33264;PMS5003;31404;53.974;-1.086;2023-02-15T02:05:33;70;55;
33264;PMS5003;31404;53.974;-1.086;2023-02-15T02:10:34;55;52;
33264;PMS5003;31404;53.974;-1.086;2023-02-15T02:30:38;56;52;
33264;PMS5003;31404;53.974;-1.086;2023-02-15T02:35:35;56;48;
33264;PMS5003;31404;53.974;-1.086;2023-02-15T02:40:36;57;50;
33264;PMS5003;31404;53.974;-1.086;2023-02-15T02:45:35;80;62;
33264;PMS5003;31404;53.974;-1.086;2023-02-15T02:50:34;83;65;
33264;PMS5003;31404;53.974;-1.086;2023-02-15T02:55:35;72;59;
33264;PMS5003;31404;53.974;-1.086;2023-02-15T03:00:36;72;61;
33264;PMS5003;31404;53.974;-1.086;2023-02-15T03:05:35;64;61;
33264;PMS5003;31404;53.974;-1.086;2023-02-15T03:10:34;79;70;
33264;PMS5003;31404;53.974;-1.086;2023-02-15T03:15:35;74;61;
33264;PMS5003;31404;53.974;-1.086;2023-02-15T03:20:35;53;46;
33264;PMS5003;31404;53.974;-1.086;2023-02-15T03:25:34;68;58;
33264;PMS5003;31404;53.974;-1.086;2023-02-15T03:30:33;73;63;
33264;PMS5003;31404;53.974;-1.086;2023-02-15T03:35:36;76;67;
33264;PMS5003;31404;53.974;-1.086;2023-02-15T03:40:34;61;59;
33264;PMS5003;31404;53.974;-1.086;2023-02-15T03:45:34;74;68;
33264;PMS5003;31404;53.974;-1.086;2023-02-15T03:50:34;72;63;
33264;PMS5003;31404;53.974;-1.086;2023-02-15T03:55:34;77;71;
33264;PMS5003;31404;53.974;-1.086;2023-02-15T04:00:34;68;66;
33264;PMS5003;31404;53.974;-1.086;2023-02-15T04:05:34;81;71;
33264;PMS5003;31404;53.974;-1.086;2023-02-15T04:10:34;80;68;
33264;PMS5003;31404;53.974;-1.086;2023-02-15T04:15:33;85;74;
33264;PMS5003;31404;53.974;-1.086;2023-02-15T04:20:34;67;62;
33264;PMS5003;31404;53.974;-1.086;2023-02-15T04:25:34;72;63;
33264;PMS5003;31404;53.974;-1.086;2023-02-15T04:30:34;66;58;
33264;PMS5003;31404;53.974;-1.086;2023-02-15T04:35:34;70;57;
33264;PMS5003;31404;53.974;-1.086;2023-02-15T04:40:34;71;64;
33264;PMS5003;31404;53.974;-1.086;2023-02-15T04:45:34;77;66;
33264;PMS5003;31404;53.974;-1.086;2023-02-15T04:50:34;65;58;
33264;PMS5003;31404;53.974;-1.086;2023-02-15T04:55:34;100;78;
33264;PMS5003;31404;53.974;-1.086;2023-02-15T05:00:34;73;62;
33264;PMS5003;31404;53.974;-1.086;2023-02-15T05:05:35;79;71;
33264;PMS5003;31404;53.974;-1.086;2023-02-15T05:10:34;92;76;
33264;PMS5003;31404;53.974;-1.086;2023-02-15T05:15:34;83;70;
33264;PMS5003;31404;53.974;-1.086;2023-02-15T05:20:34;75;69;
33264;PMS5003;31404;53.974;-1.086;2023-02-15T05:25:34;86;72;
33264;PMS5003;31404;53.974;-1.086;2023-02-15T05:30:34;90;73;
33264;PMS5003;31404;53.974;-1.086;2023-02-15T05:35:34;68;59;
33264;PMS5003;31404;53.974;-1.086;2023-02-15T05:40:35;83;77;
33264;PMS5003;31404;53.974;-1.086;2023-02-15T05:45:33;80;70;
33264;PMS5003;31404;53.974;-1.086;2023-02-15T05:50:33;90;81;
33264;PMS5003;31404;53.974;-1.086;2023-02-15T05:55:36;85;74;
33264;PMS5003;31404;53.974;-1.086;2023-02-15T06:00:34;90;83;
33264;PMS5003;31404;53.974;-1.086;2023-02-15T06:05:35;94;81;
33264;PMS5003;31404;53.974;-1.086;2023-02-15T06:10:34;96;79;
33264;PMS5003;31404;53.974;-1.086;2023-02-15T06:15:34;95;88;
33264;PMS5003;31404;53.974;-1.086;2023-02-15T06:20:34;101;83;
33264;PMS5003;31404;53.974;-1.086;2023-02-15T06:25:36;87;85;
33264;PMS5003;31404;53.974;-1.086;2023-02-15T06:30:34;99;87;
33264;PMS5003;31404;53.974;-1.086;2023-02-15T06:35:34;97;83;
33264;PMS5003;31404;53.974;-1.086;2023-02-15T06:40:34;79;69;
33264;PMS5003;31404;53.974;-1.086;2023-02-15T06:45:34;93;78;
33264;PMS5003;31404;53.974;-1.086;2023-02-15T06:50:34;90;80;
33264;PMS5003;31404;53.974;-1.086;2023-02-15T06:55:34;103;90;
33264;PMS5003;31404;53.974;-1.086;2023-02-15T07:00:34;90;84;
33264;PMS5003;31404;53.974;-1.086;2023-02-15T07:05:35;101;86;
33264;PMS5003;31404;53.974;-1.086;2023-02-15T07:10:34;99;86;
33264;PMS5003;31404;53.974;-1.086;2023-02-15T07:15:34;87;81;
33264;PMS5003;31404;53.974;-1.086;2023-02-15T07:20:34;101;87;
33264;PMS5003;31404;53.974;-1.086;2023-02-15T07:25:34;91;84;
33264;PMS5003;31404;53.974;-1.086;2023-02-15T07:30:34;96;81;
33264;PMS5003;31404;53.974;-1.086;2023-02-15T07:35:34;100;82;
33264;PMS5003;31404;53.974;-1.086;2023-02-15T07:40:35;96;76;
33264;PMS5003;31404;53.974;-1.086;2023-02-15T07:45:33;101;91;
33264;PMS5003;31404;53.974;-1.086;2023-02-15T07:50:34;91;80;
33264;PMS5003;31404;53.974;-1.086;2023-02-15T08:00:34;101;80;
33264;PMS5003;31404;53.974;-1.086;2023-02-15T08:05:35;84;73;
33264;PMS5003;31404;53.974;-1.086;2023-02-15T08:10:35;93;79;
33264;PMS5003;31404;53.974;-1.086;2023-02-15T08:15:34;105;84;
33264;PMS5003;31404;53.974;-1.086;2023-02-15T08:20:34;103;87;
33264;PMS5003;31404;53.974;-1.086;2023-02-15T08:25:34;95;84;
33264;PMS5003;31404;53.974;-1.086;2023-02-15T08:30:34;94;83;
33264;PMS5003;31404;53.974;-1.086;2023-02-15T08:35:34;112;92;
33264;PMS5003;31404;53.974;-1.086;2023-02-15T08:40:34;97;87;
33264;PMS5003;31404;53.974;-1.086;2023-02-15T08:45:35;98;87;
33264;PMS5003;31404;53.974;-1.086;2023-02-15T08:50:34;94;80;
33264;PMS5003;31404;53.974;-1.086;2023-02-15T08:55:34;89;87;
33264;PMS5003;31404;53.974;-1.086;2023-02-15T09:00:34;103;85;
33264;PMS5003;31404;53.974;-1.086;2023-02-15T09:05:35;98;87;
33264;PMS5003;31404;53.974;-1.086;2023-02-15T09:10:34;100;83;
33264;PMS5003;31404;53.974;-1.086;2023-02-15T09:15:34;84;72;
33264;PMS5003;31404;53.974;-1.086;2023-02-15T09:20:34;93;84;
33264;PMS5003;31404;53.974;-1.086;2023-02-15T09:25:34;95;83;
33264;PMS5003;31404;53.974;-1.086;2023-02-15T09:30:34;84;79;
33264;PMS5003;31404;53.974;-1.086;2023-02-15T09:35:34;88;79;
33264;PMS5003;31404;53.974;-1.086;2023-02-15T09:40:35;93;79;
33264;PMS5003;31404;53.974;-1.086;2023-02-15T09:50:36;84;76;
33264;PMS5003;31404;53.974;-1.086;2023-02-15T09:55:37;89;75;
33264;PMS5003;31404;53.974;-1.086;2023-02-15T10:00:37;92;80;
33264;PMS5003;31404;53.974;-1.086;2023-02-15T10:05:36;88;80;
33264;PMS5003;31404;53.974;-1.086;2023-02-15T10:10:34;86;79;
33264;PMS5003;31404;53.974;-1.086;2023-02-15T10:20:35;82;73;
33264;PMS5003;31404;53.974;-1.086;2023-02-15T10:25:37;86;84;
33264;PMS5003;31404;53.974;-1.086;2023-02-15T10:30:36;101;84;
33264;PMS5003;31404;53.974;-1.086;2023-02-15T10:35:36;88;80;
33264;PMS5003;31404;53.974;-1.086;2023-02-15T10:40:36;83;74;
33264;PMS5003;31404;53.974;-1.086;2023-02-15T10:45:35;94;81;
33264;PMS5003;31404;53.974;-1.086;2023-02-15T10:50:38;87;79;
33264;PMS5003;31404;53.974;-1.086;2023-02-15T11:00:35;79;70;
33264;PMS5003;31404;53.974;-1.086;2023-02-15T11:05:38;85;77;
33264;PMS5003;31404;53.974;-1.086;2023-02-15T11:10:35;84;69;
33264;PMS5003;31404;53.974;-1.086;2023-02-15T11:15:35;88;81;
33264;PMS5003;31404;53.974;-1.086;2023-02-15T11:20:35;77;74;
33264;PMS5003;31404;53.974;-1.086;2023-02-15T11:25:35;81;74;
33264;PMS5003;31404;53.974;-1.086;2023-02-15T11:30:38;88;80;
33264;PMS5003;31404;53.974;-1.086;2023-02-15T11:35:36;79;67;
33264;PMS5003;31404;53.974;-1.086;2023-02-15T11:40:34;86;72;
33264;PMS5003;31404;53.974;-1.086;2023-02-15T11:45:34;91;77;
33264;PMS5003;31404;53.974;-1.086;2023-02-15T11:50:34;86;79;
33264;PMS5003;31404;53.974;-1.086;2023-02-15T11:55:34;92;85;
33264;PMS5003;31404;53.974;-1.086;2023-02-15T12:00:35;82;71;
33264;PMS5003;31404;53.974;-1.086;2023-02-15T12:05:34;77;71;
33264;PMS5003;31404;53.974;-1.086;2023-02-15T12:10:36;90;74;
33264;PMS5003;31404;53.974;-1.086;2023-02-15T12:15:34;77;74;
33264;PMS5003;31404;53.974;-1.086;2023-02-15T12:20:34;76;67;
33264;PMS5003;31404;53.974;-1.086;2023-02-15T12:25:35;74;70;
33264;PMS5003;31404;53.974;-1.086;2023-02-15T12:30:34;89;79;
33264;PMS5003;31404;53.974;-1.086;2023-02-15T12:35:34;88;76;
33264;PMS5003;31404;53.974;-1.086;2023-02-15T12:40:34;71;63;
33264;PMS5003;31404;53.974;-1.086;2023-02-15T12:45:35;70;70;
33264;PMS5003;31404;53.974;-1.086;2023-02-15T12:50:34;86;76;
33264;PMS5003;31404;53.974;-1.086;2023-02-15T12:55:34;79;66;
33264;PMS5003;31404;53.974;-1.086;2023-02-15T13:00:34;60;60;
33264;PMS5003;31404;53.974;-1.086;2023-02-15T13:05:34;65;58;
33264;PMS5003;31404;53.974;-1.086;2023-02-15T13:10:35;64;60;
33264;PMS5003;31404;53.974;-1.086;2023-02-15T13:15:34;77;69;
33264;PMS5003;31404;53.974;-1.086;2023-02-15T13:20:34;59;51;
33264;PMS5003;31404;53.974;-1.086;2023-02-15T13:25:40;64;60;
33264;PMS5003;31404;53.974;-1.086;2023-02-15T13:30:35;61;55;
33264;PMS5003;31404;53.974;-1.086;2023-02-15T13:35:36;63;52;
33264;PMS5003;31404;53.974;-1.086;2023-02-15T13:40:37;59;49;
33264;PMS5003;31404;53.974;-1.086;2023-02-15T13:45:38;67;59;
33264;PMS5003;31404;53.974;-1.086;2023-02-15T13:50:38;57;49;
33264;PMS5003;31404;53.974;-1.086;2023-02-15T13:55:36;29;29;
33264;PMS5003;31404;53.974;-1.086;2023-02-15T14:00:35;38;35;
33264;PMS5003;31404;53.974;-1.086;2023-02-15T14:10:39;35;32;
33264;PMS5003;31404;53.974;-1.086;2023-02-15T14:15:35;40;35;
33264;PMS5003;31404;53.974;-1.086;2023-02-15T14:25:35;33;31;
33264;PMS5003;31404;53.974;-1.086;2023-02-15T14:30:35;32;30;
33264;PMS5003;31404;53.974;-1.086;2023-02-15T14:35:34;34;31;
33264;PMS5003;31404;53.974;-1.086;2023-02-15T14:40:38;34;29;
33264;PMS5003;31404;53.974;-1.086;2023-02-15T14:45:35;34;34;
33264;PMS5003;31404;53.974;-1.086;2023-02-15T14:55:34;36;32;
33264;PMS5003;31404;53.974;-1.086;2023-02-15T15:00:36;34;28;
33264;PMS5003;31404;53.974;-1.086;2023-02-15T15:05:35;30;30;
33264;PMS5003;31404;53.974;-1.086;2023-02-15T15:15:39;26;24;
33264;PMS5003;31404;53.974;-1.086;2023-02-15T15:35:35;23;23;
33264;PMS5003;31404;53.974;-1.086;2023-02-15T15:50:34;22;21;
33264;PMS5003;31404;53.974;-1.086;2023-02-15T15:55:34;16;16;
33264;PMS5003;31404;53.974;-1.086;2023-02-15T16:05:35;26;21;
33264;PMS5003;31404;53.974;-1.086;2023-02-15T16:10:34;18;17;
33264;PMS5003;31404;53.974;-1.086;2023-02-15T16:15:36;16;16;
33264;PMS5003;31404;53.974;-1.086;2023-02-15T16:20:34;17;16;
33264;PMS5003;31404;53.974;-1.086;2023-02-15T16:25:35;15;11;
33264;PMS5003;31404;53.974;-1.086;2023-02-15T16:30:35;16;15;
33264;PMS5003;31404;53.974;-1.086;2023-02-15T16:35:34;17;16;
33264;PMS5003;31404;53.974;-1.086;2023-02-15T16:45:34;16;16;
33264;PMS5003;31404;53.974;-1.086;2023-02-15T16:50:34;22;19;
33264;PMS5003;31404;53.974;-1.086;2023-02-15T16:55:35;16;14;
33264;PMS5003;31404;53.974;-1.086;2023-02-15T17:00:34;11;11;
33264;PMS5003;31404;53.974;-1.086;2023-02-15T17:05:40;12;11;
33264;PMS5003;31404;53.974;-1.086;2023-02-15T17:10:35;11;10;
33264;PMS5003;31404;53.974;-1.086;2023-02-15T17:15:35;15;12;
33264;PMS5003;31404;53.974;-1.086;2023-02-15T17:20:34;13;12;
33264;PMS5003;31404;53.974;-1.086;2023-02-15T17:25:40;15;13;
33264;PMS5003;31404;53.974;-1.086;2023-02-15T17:30:34;18;18;
33264;PMS5003;31404;53.974;-1.086;2023-02-15T17:35:34;18;18;
33264;PMS5003;31404;53.974;-1.086;2023-02-15T17:40:35;27;24;
33264;PMS5003;31404;53.974;-1.086;2023-02-15T17:45:35;25;23;
33264;PMS5003;31404;53.974;-1.086;2023-02-15T17:50:35;17;13;
33264;PMS5003;31404;53.974;-1.086;2023-02-15T17:55:35;19;19;
33264;PMS5003;31404;53.974;-1.086;2023-02-15T18:00:35;26;23;
33264;PMS5003;31404;53.974;-1.086;2023-02-15T18:05:34;26;23;
33264;PMS5003;31404;53.974;-1.086;2023-02-15T18:10:35;45;41;
33264;PMS5003;31404;53.974;-1.086;2023-02-15T18:15:35;40;35;
33264;PMS5003;31404;53.974;-1.086;2023-02-15T18:20:35;30;28;
33264;PMS5003;31404;53.974;-1.086;2023-02-15T18:25:34;37;36;
33264;PMS5003;31404;53.974;-1.086;2023-02-15T18:30:35;35;33;
33264;PMS5003;31404;53.974;-1.086;2023-02-15T18:35:34;32;31;
33264;PMS5003;31404;53.974;-1.086;2023-02-15T18:40:33;38;37;
33264;PMS5003;31404;53.974;-1.086;2023-02-15T18:45:35;33;31;
33264;PMS5003;31404;53.974;-1.086;2023-02-15T18:50:36;38;33;
33264;PMS5003;31404;53.974;-1.086;2023-02-15T18:55:34;32;31;
33264;PMS5003;31404;53.974;-1.086;2023-02-15T19:00:34;37;32;
33264;PMS5003;31404;53.974;-1.086;2023-02-15T19:05:34;35;34;
33264;PMS5003;31404;53.974;-1.086;2023-02-15T19:10:34;76;74;
33264;PMS5003;31404;53.974;-1.086;2023-02-15T19:15:34;43;40;
33264;PMS5003;31404;53.974;-1.086;2023-02-15T19:20:35;41;40;
33264;PMS5003;31404;53.974;-1.086;2023-02-15T19:25:35;38;35;
33264;PMS5003;31404;53.974;-1.086;2023-02-15T19:30:34;27;21;
33264;PMS5003;31404;53.974;-1.086;2023-02-15T19:35:34;38;38;
33264;PMS5003;31404;53.974;-1.086;2023-02-15T19:40:34;35;35;
33264;PMS5003;31404;53.974;-1.086;2023-02-15T19:45:34;42;39;
33264;PMS5003;31404;53.974;-1.086;2023-02-15T19:50:34;30;28;
33264;PMS5003;31404;53.974;-1.086;2023-02-15T19:55:34;37;31;
33264;PMS5003;31404;53.974;-1.086;2023-02-15T20:00:34;39;37;
33264;PMS5003;31404;53.974;-1.086;2023-02-15T20:05:35;37;36;
33264;PMS5003;31404;53.974;-1.086;2023-02-15T20:10:35;43;35;
33264;PMS5003;31404;53.974;-1.086;2023-02-15T20:15:34;37;36;
33264;PMS5003;31404;53.974;-1.086;2023-02-15T20:25:34;40;35;
33264;PMS5003;31404;53.974;-1.086;2023-02-15T20:30:34;43;35;
33264;PMS5003;31404;53.974;-1.086;2023-02-15T20:35:34;35;30;
33264;PMS5003;31404;53.974;-1.086;2023-02-15T20:40:34;38;35;
33264;PMS5003;31404;53.974;-1.086;2023-02-15T20:45:35;33;30;
33264;PMS5003;31404;53.974;-1.086;2023-02-15T20:50:34;32;32;
33264;PMS5003;31404;53.974;-1.086;2023-02-15T20:55:35;35;30;
33264;PMS5003;31404;53.974;-1.086;2023-02-15T21:00:35;34;30;
33264;PMS5003;31404;53.974;-1.086;2023-02-15T21:05:35;38;30;
33264;PMS5003;31404;53.974;-1.086;2023-02-15T21:10:34;28;24;
33264;PMS5003;31404;53.974;-1.086;2023-02-15T21:15:34;32;24;
33264;PMS5003;31404;53.974;-1.086;2023-02-15T21:20:35;47;40;
33264;PMS5003;31404;53.974;-1.086;2023-02-15T21:25:35;51;50;
33264;PMS5003;31404;53.974;-1.086;2023-02-15T21:30:34;40;39;
33264;PMS5003;31404;53.974;-1.086;2023-02-15T21:35:35;47;42;
33264;PMS5003;31404;53.974;-1.086;2023-02-15T21:40:35;36;35;
33264;PMS5003;31404;53.974;-1.086;2023-02-15T21:45:34;43;40;
33264;PMS5003;31404;53.974;-1.086;2023-02-15T21:50:34;27;26;
33264;PMS5003;31404;53.974;-1.086;2023-02-15T21:55:34;45;39;
33264;PMS5003;31404;53.974;-1.086;2023-02-15T22:00:35;43;33;
33264;PMS5003;31404;53.974;-1.086;2023-02-15T22:05:34;41;39;
33264;PMS5003;31404;53.974;-1.086;2023-02-15T22:10:34;48;40;
33264;PMS5003;31404;53.974;-1.086;2023-02-15T22:15:34;46;37;
33264;PMS5003;31404;53.974;-1.086;2023-02-15T22:20:34;46;41;
33264;PMS5003;31404;53.974;-1.086;2023-02-15T22:25:34;38;36;
33264;PMS5003;31404;53.974;-1.086;2023-02-15T22:30:35;41;34;
33264;PMS5003;31404;53.974;-1.086;2023-02-15T22:35:34;42;41;
33264;PMS5003;31404;53.974;-1.086;2023-02-15T22:45:35;44;38;
33264;PMS5003;31404;53.974;-1.086;2023-02-15T22:50:34;37;36;
33264;PMS5003;31404;53.974;-1.086;2023-02-15T22:55:35;43;34;
33264;PMS5003;31404;53.974;-1.086;2023-02-15T23:00:37;38;36;
33264;PMS5003;31404;53.974;-1.086;2023-02-15T23:05:40;40;35;
33264;PMS5003;31404;53.974;-1.086;2023-02-15T23:10:34;38;35;
33264;PMS5003;31404;53.974;-1.086;2023-02-15T23:15:34;35;32;
33264;PMS5003;31404;53.974;-1.086;2023-02-15T23:20:34;34;32;
33264;PMS5003;31404;53.974;-1.086;2023-02-15T23:25:35;30;29;
33264;PMS5003;31404;53.974;-1.086;2023-02-15T23:30:35;36;30;
33264;PMS5003;31404;53.974;-1.086;2023-02-15T23:35:36;33;33;
33264;PMS5003;31404;53.974;-1.086;2023-02-15T23:40:34;35;32;
33264;PMS5003;31404;53.974;-1.086;2023-02-15T23:45:35;22;21;
33264;PMS5003;31404;53.974;-1.086;2023-02-15T23:50:34;24;17;
33264;PMS5003;31404;53.974;-1.086;2023-02-15T23:55:35;24;23;
